createdAt,value
2023-04-23T00:00:06.334Z,2.83
2023-04-23T00:02:39.721Z,3.05
2023-04-23T00:05:07.021Z,2.80
2023-04-23T00:07:34.254Z,2.60
2023-04-23T00:10:01.559Z,2.95
2023-04-23T00:12:30.397Z,2.35
2023-04-23T00:14:56.922Z,2.70
2023-04-23T00:17:23.595Z,2.75
2023-04-23T00:19:50.055Z,2.45
2023-04-23T00:22:17.161Z,2.58
2023-04-23T00:24:44.237Z,2.20
2023-04-23T00:27:10.699Z,2.40
2023-04-23T00:29:37.177Z,2.33
2023-04-23T00:32:03.949Z,2.25
2023-04-23T00:34:31.010Z,2.50
2023-04-23T00:36:57.478Z,2.45
2023-04-23T00:39:23.991Z,2.60
2023-04-23T00:41:50.659Z,2.35
2023-04-23T00:44:17.127Z,2.35
2023-04-23T00:46:44.355Z,2.35
2023-04-23T00:49:11.040Z,2.42
2023-04-23T00:51:37.492Z,2.90
2023-04-23T00:54:04.045Z,2.58
2023-04-23T00:56:30.642Z,2.97
2023-04-23T00:58:57.398Z,2.80
2023-04-23T01:01:24.110Z,3.17
2023-04-23T01:03:52.843Z,2.60
2023-04-23T01:06:19.709Z,3.10
2023-04-23T01:08:47.120Z,2.80
2023-04-23T01:11:14.231Z,2.70
2023-04-23T01:13:41.935Z,2.83
2023-04-23T01:16:09.430Z,3.20
2023-04-23T01:18:37.748Z,2.83
2023-04-23T01:21:05.984Z,2.78
2023-04-23T01:23:32.582Z,3.10
2023-04-23T01:25:59.068Z,3.25
2023-04-23T01:28:26.029Z,3.63
2023-04-23T01:30:52.823Z,3.50
2023-04-23T01:33:19.409Z,3.40
2023-04-23T01:35:47.554Z,3.35
2023-04-23T01:38:14.270Z,2.88
2023-04-23T01:40:41.070Z,3.10
2023-04-23T01:43:08.755Z,3.33
2023-04-23T01:45:35.288Z,2.83
2023-04-23T01:48:01.979Z,3.00
2023-04-23T01:50:29.932Z,3.17
2023-04-23T01:52:56.480Z,3.25
2023-04-23T01:55:23.696Z,3.35
2023-04-23T01:57:51.147Z,3.00
2023-04-23T02:00:18.082Z,3.25
2023-04-23T02:02:45.015Z,3.22
2023-04-23T02:05:18.251Z,3.22
2023-04-23T02:07:46.805Z,2.80
2023-04-23T02:10:14.222Z,2.92
2023-04-23T02:12:40.852Z,2.60
2023-04-23T02:15:10.250Z,3.03
2023-04-23T02:17:36.917Z,2.97
2023-04-23T02:20:03.759Z,3.10
2023-04-23T02:22:31.573Z,2.83
2023-04-23T02:24:58.626Z,2.55
2023-04-23T02:27:25.757Z,2.65
2023-04-23T02:29:52.222Z,2.40
2023-04-23T02:32:18.740Z,2.13
2023-04-23T02:34:45.238Z,2.35
2023-04-23T02:37:12.012Z,2.35
2023-04-23T02:39:41.369Z,2.70
2023-04-23T02:42:09.174Z,2.30
2023-04-23T02:44:35.651Z,2.30
2023-04-23T02:47:02.208Z,2.55
2023-04-23T02:49:28.773Z,2.25
2023-04-23T02:51:55.383Z,1.95
2023-04-23T02:54:21.904Z,2.40
2023-04-23T02:56:48.408Z,2.15
2023-04-23T02:59:14.965Z,2.10
2023-04-23T03:01:41.538Z,1.80
2023-04-23T03:04:10.450Z,1.90
2023-04-23T03:06:37.383Z,1.83
2023-04-23T03:09:04.362Z,1.80
2023-04-23T03:11:31.509Z,2.10
2023-04-23T03:13:58.373Z,1.98
2023-04-23T03:16:28.465Z,1.80
2023-04-23T03:18:55.455Z,2.00
2023-04-23T03:21:21.931Z,1.90
2023-04-23T03:23:49.313Z,1.90
2023-04-23T03:26:16.887Z,1.90
2023-04-23T03:28:43.697Z,2.05
2023-04-23T03:31:10.270Z,2.50
2023-04-23T03:33:36.844Z,1.95
2023-04-23T03:36:03.549Z,2.15
2023-04-23T03:38:32.136Z,2.13
2023-04-23T03:40:59.594Z,2.30
2023-04-23T03:43:26.752Z,1.95
2023-04-23T03:45:59.022Z,1.70
2023-04-23T03:48:26.977Z,2.10
2023-04-23T03:50:53.539Z,2.10
2023-04-23T03:53:33.753Z,2.00
2023-04-23T03:56:18.666Z,2.28
2023-04-23T03:58:54.356Z,2.45
2023-04-23T04:01:20.840Z,2.30
2023-04-23T04:03:47.489Z,2.15
2023-04-23T04:06:15.716Z,2.42
2023-04-23T04:08:42.166Z,2.30
2023-04-23T04:11:08.695Z,2.55
2023-04-23T04:13:35.249Z,1.95
2023-04-23T04:16:01.793Z,2.25
2023-04-23T04:18:28.278Z,1.70
2023-04-23T04:20:55.092Z,1.80
2023-04-23T04:23:21.649Z,1.92
2023-04-23T04:25:50.884Z,2.17
2023-04-23T04:28:17.728Z,1.85
2023-04-23T04:30:44.733Z,2.20
2023-04-23T04:33:11.342Z,2.03
2023-04-23T04:35:37.773Z,2.10
2023-04-23T04:38:04.230Z,2.13
2023-04-23T04:40:31.492Z,2.30
2023-04-23T04:43:00.114Z,2.58
2023-04-23T04:45:26.621Z,2.30
2023-04-23T04:47:53.153Z,2.22
2023-04-23T04:50:19.632Z,2.30
2023-04-23T04:52:46.219Z,2.42
2023-04-23T04:55:12.939Z,2.60
2023-04-23T04:57:39.416Z,3.00
2023-04-23T05:00:23.451Z,3.03
2023-04-23T05:02:51.165Z,2.90
2023-04-23T05:05:18.605Z,2.92
2023-04-23T05:07:45.503Z,3.00
2023-04-23T05:10:12.952Z,2.65
2023-04-23T05:12:41.512Z,2.72
2023-04-23T05:15:09.617Z,2.90
2023-04-23T05:17:36.892Z,2.75
2023-04-23T05:20:03.796Z,2.60
2023-04-23T05:22:30.558Z,2.80
2023-04-23T05:24:57.084Z,2.80
2023-04-23T05:27:23.619Z,2.92
2023-04-23T05:29:50.082Z,2.88
2023-04-23T05:32:16.614Z,3.03
2023-04-23T05:34:43.374Z,3.20
2023-04-23T05:37:10.096Z,3.17
2023-04-23T05:39:36.567Z,2.90
2023-04-23T05:42:03.096Z,3.20
2023-04-23T05:44:29.880Z,3.22
2023-04-23T05:46:56.341Z,3.28
2023-04-23T05:49:23.039Z,3.30
2023-04-23T05:51:50.099Z,3.28
2023-04-23T05:54:16.586Z,2.80
2023-04-23T05:56:43.062Z,3.30
2023-04-23T05:59:09.561Z,3.35
2023-04-23T06:01:36.084Z,3.75
2023-04-23T06:04:02.691Z,3.40
2023-04-23T06:06:29.368Z,3.10
2023-04-23T06:08:55.855Z,3.30
2023-04-23T06:11:22.318Z,3.17
2023-04-23T06:13:48.831Z,3.30
2023-04-23T06:16:15.607Z,3.75
2023-04-23T06:18:42.073Z,3.90
2023-04-23T06:21:08.842Z,3.25
2023-04-23T06:23:35.544Z,3.60
2023-04-23T06:26:02.099Z,3.67
2023-04-23T06:28:28.585Z,3.55
2023-04-23T06:31:15.392Z,3.50
2023-04-23T06:33:42.090Z,3.17
2023-04-23T06:36:10.973Z,3.10
2023-04-23T06:38:37.984Z,3.15
2023-04-23T06:41:04.697Z,2.70
2023-04-23T06:43:31.517Z,2.67
2023-04-23T06:46:16.746Z,2.20
2023-04-23T06:48:43.349Z,2.75
2023-04-23T06:51:09.949Z,2.25
2023-04-23T06:53:36.735Z,2.40
2023-04-23T06:56:03.257Z,2.38
2023-04-23T06:58:32.716Z,2.30
2023-04-23T07:01:04.069Z,2.08
2023-04-23T07:03:33.119Z,2.50
2023-04-23T07:05:59.838Z,2.53
2023-04-23T07:08:26.320Z,2.25
2023-04-23T07:10:53.316Z,2.17
2023-04-23T07:13:19.855Z,2.70
2023-04-23T07:15:46.666Z,3.28
2023-04-23T07:18:13.653Z,3.50
2023-04-23T07:20:40.262Z,3.45
2023-04-23T07:23:06.786Z,3.45
2023-04-23T07:25:33.369Z,3.50
2023-04-23T07:28:00.035Z,3.38
2023-04-23T07:30:27.484Z,3.65
2023-04-23T07:32:55.101Z,3.40
2023-04-23T07:35:21.734Z,3.50
2023-04-23T07:37:53.565Z,3.75
2023-04-23T07:40:24.124Z,4.07
2023-04-23T07:42:51.374Z,3.80
2023-04-23T07:45:18.671Z,3.88
2023-04-23T07:47:46.627Z,3.65
2023-04-23T07:50:13.410Z,4.20
2023-04-23T07:52:39.988Z,3.30
2023-04-23T07:55:06.858Z,3.03
2023-04-23T07:57:33.310Z,2.80
2023-04-23T07:59:59.774Z,2.55
2023-04-23T08:02:27.647Z,2.70
2023-04-23T08:04:54.372Z,2.35
2023-04-23T08:07:21.134Z,2.20
2023-04-23T08:09:47.976Z,2.20
2023-04-23T08:12:17.062Z,2.03
2023-04-23T08:14:44.283Z,2.05
2023-04-23T08:17:14.330Z,2.35
2023-04-23T08:19:41.152Z,2.70
2023-04-23T08:22:07.837Z,3.25
2023-04-23T08:24:34.325Z,3.90
2023-04-23T08:27:01.703Z,3.30
2023-04-23T08:29:28.160Z,2.85
2023-04-23T08:31:55.056Z,3.00
2023-04-23T08:34:21.544Z,3.00
2023-04-23T08:36:49.424Z,3.10
2023-04-23T08:39:16.250Z,4.03
2023-04-23T08:41:43.988Z,3.35
2023-04-23T08:44:22.886Z,3.70
2023-04-23T08:46:49.425Z,3.13
2023-04-23T08:49:17.757Z,3.10
2023-04-23T08:51:54.035Z,3.45
2023-04-23T08:54:27.870Z,4.30
2023-04-23T08:56:58.823Z,4.90
2023-04-23T08:59:26.618Z,5.15
2023-04-23T09:01:53.928Z,4.32
2023-04-23T09:04:20.819Z,4.60
2023-04-23T09:06:47.293Z,4.70
2023-04-23T09:09:17.969Z,3.95
2023-04-23T09:11:44.611Z,3.17
2023-04-23T09:14:12.736Z,3.30
2023-04-23T09:16:41.126Z,3.17
2023-04-23T09:19:10.132Z,2.55
2023-04-23T09:21:36.881Z,2.40
2023-04-23T09:24:06.425Z,2.30
2023-04-23T09:26:32.899Z,2.00
2023-04-23T09:28:59.368Z,2.67
2023-04-23T09:31:25.844Z,2.00
2023-04-23T09:33:53.601Z,1.90
2023-04-23T09:36:23.801Z,2.25
2023-04-23T09:38:50.943Z,1.75
2023-04-23T09:41:22.376Z,2.10
2023-04-23T09:43:48.952Z,1.90
2023-04-23T09:46:15.485Z,2.00
2023-04-23T09:48:43.106Z,1.70
2023-04-23T09:51:09.654Z,1.70
2023-04-23T09:53:43.529Z,1.60
2023-04-23T09:56:10.457Z,1.50
2023-04-23T09:58:37.905Z,1.60
2023-04-23T10:01:08.956Z,1.55
2023-04-23T10:03:35.718Z,1.27
2023-04-23T10:06:03.238Z,1.30
2023-04-23T10:08:31.804Z,1.63
2023-04-23T10:11:13.749Z,1.40
2023-04-23T10:13:44.972Z,1.40
2023-04-23T10:16:21.615Z,1.20
2023-04-23T10:18:52.373Z,1.20
2023-04-23T10:21:19.609Z,1.60
2023-04-23T10:23:47.848Z,1.25
2023-04-23T10:26:16.698Z,1.20
2023-04-23T10:28:47.264Z,1.25
2023-04-23T10:31:13.949Z,0.85
2023-04-23T10:33:55.508Z,1.40
2023-04-23T10:36:25.802Z,3.05
2023-04-23T10:38:58.388Z,1.20
2023-04-23T10:41:29.287Z,1.10
2023-04-23T10:43:55.789Z,1.05
2023-04-23T10:46:32.386Z,1.20
2023-04-23T10:49:06.967Z,0.85
2023-04-23T10:54:07.366Z,6.13
2023-04-23T10:56:33.822Z,1.40
2023-04-23T10:59:00.332Z,1.10
2023-04-23T11:01:30.058Z,1.27
2023-04-23T11:03:56.762Z,1.20
2023-04-23T11:06:49.002Z,1.27
2023-04-23T11:09:29.688Z,1.08
2023-04-23T11:11:57.785Z,1.40
2023-04-23T11:14:37.121Z,1.52
2023-04-23T11:17:05.262Z,1.77
2023-04-23T11:19:31.804Z,1.60
2023-04-23T11:21:59.791Z,1.10
2023-04-23T11:24:29.337Z,1.10
2023-04-23T11:26:56.180Z,1.08
2023-04-23T11:29:24.120Z,1.10
2023-04-23T11:32:01.575Z,1.00
2023-04-23T11:34:30.156Z,0.80
2023-04-23T11:36:58.967Z,1.00
2023-04-23T11:39:25.865Z,1.40
2023-04-23T11:41:52.823Z,1.20
2023-04-23T11:44:21.221Z,1.40
2023-04-23T11:46:49.421Z,1.30
2023-04-23T11:49:16.939Z,1.30
2023-04-23T11:51:44.645Z,1.17
2023-04-23T11:54:12.106Z,1.05
2023-04-23T11:56:38.600Z,1.10
2023-04-23T11:59:05.718Z,1.15
2023-04-23T12:01:53.741Z,1.10
2023-04-23T12:04:28.279Z,1.40
2023-04-23T12:06:55.958Z,1.20
2023-04-23T12:09:24.800Z,1.08
2023-04-23T12:11:51.357Z,1.95
2023-04-23T12:14:20.833Z,1.10
2023-04-23T12:16:52.035Z,1.20
2023-04-23T12:19:27.328Z,1.10
2023-04-23T12:22:01.233Z,1.00
2023-04-23T12:24:44.852Z,1.10
2023-04-23T12:29:42.335Z,1.25
2023-04-23T12:32:11.448Z,1.10
2023-04-23T12:34:37.974Z,1.05
2023-04-23T12:37:06.717Z,0.90
2023-04-23T12:39:34.477Z,1.00
2023-04-23T12:42:05.650Z,1.23
2023-04-23T12:44:35.666Z,0.90
2023-04-23T12:47:09.297Z,1.13
2023-04-23T12:49:38.028Z,1.17
2023-04-23T12:52:05.486Z,0.90
2023-04-23T12:54:37.486Z,1.02
2023-04-23T12:57:08.367Z,1.00
2023-04-23T12:59:34.833Z,1.00
2023-04-23T13:02:02.295Z,1.00
2023-04-23T13:04:30.123Z,1.00
2023-04-23T13:06:56.989Z,1.02
2023-04-23T13:09:40.231Z,0.95
2023-04-23T13:12:06.751Z,1.10
2023-04-23T13:14:33.259Z,1.02
2023-04-23T13:16:59.742Z,0.90
2023-04-23T13:19:26.470Z,0.82
2023-04-23T13:21:53.573Z,1.17
2023-04-23T13:24:20.084Z,1.00
2023-04-23T13:26:46.565Z,0.90
2023-04-23T13:29:13.193Z,0.88
2023-04-23T13:31:39.657Z,0.90
2023-04-23T13:34:06.202Z,1.10
2023-04-23T13:36:32.686Z,1.05
2023-04-23T13:38:59.167Z,1.00
2023-04-23T13:41:25.623Z,1.02
2023-04-23T13:43:52.700Z,1.08
2023-04-23T13:46:19.701Z,0.90
2023-04-23T13:48:46.352Z,1.00
2023-04-23T13:51:32.622Z,1.00
2023-04-23T13:53:59.301Z,1.10
2023-04-23T13:56:26.796Z,1.15
2023-04-23T13:58:53.583Z,1.10
2023-04-23T14:01:20.599Z,1.35
2023-04-23T14:03:48.174Z,1.27
2023-04-23T14:06:14.642Z,1.30
2023-04-23T14:08:41.102Z,1.27
2023-04-23T14:11:07.589Z,1.13
2023-04-23T14:13:34.053Z,1.17
2023-04-23T14:16:03.392Z,1.20
2023-04-23T14:18:30.294Z,1.15
2023-04-23T14:20:56.781Z,0.80
2023-04-23T14:23:23.130Z,1.20
2023-04-23T14:25:58.291Z,1.08
2023-04-23T14:28:29.049Z,1.40
2023-04-23T14:30:56.962Z,0.90
2023-04-23T14:33:24.044Z,1.30
2023-04-23T14:35:50.639Z,1.13
2023-04-23T14:38:17.714Z,1.33
2023-04-23T14:40:44.176Z,1.38
2023-04-23T14:43:15.612Z,1.20
2023-04-23T14:45:42.705Z,1.25
2023-04-23T14:48:09.158Z,1.30
2023-04-23T14:50:35.695Z,1.23
2023-04-23T14:53:06.875Z,1.27
2023-04-23T14:55:33.838Z,1.55
2023-04-23T14:58:00.586Z,1.40
2023-04-23T15:00:27.703Z,1.30
2023-04-23T15:02:54.365Z,1.45
2023-04-23T15:05:21.130Z,1.10
2023-04-23T15:07:47.579Z,1.38
2023-04-23T15:10:14.193Z,1.30
2023-04-23T15:12:40.537Z,1.20
2023-04-23T15:15:15.229Z,1.15
2023-04-23T15:17:41.680Z,1.20
2023-04-23T15:20:08.417Z,1.30
2023-04-23T15:22:34.852Z,1.40
2023-04-23T15:25:01.537Z,1.17
2023-04-23T15:27:28.008Z,1.35
2023-04-23T15:29:54.472Z,1.23
2023-04-23T15:32:20.925Z,1.30
2023-04-23T15:34:47.384Z,1.30
2023-04-23T15:37:15.158Z,1.40
2023-04-23T15:39:41.950Z,1.30
2023-04-23T15:42:08.627Z,1.30
2023-04-23T15:44:35.084Z,1.20
2023-04-23T15:47:03.292Z,1.27
2023-04-23T15:49:29.846Z,1.15
2023-04-23T15:51:56.333Z,1.48
2023-04-23T15:54:22.808Z,1.58
2023-04-23T15:56:49.315Z,1.30
2023-04-23T15:59:15.801Z,1.58
2023-04-23T16:01:42.363Z,1.20
2023-04-23T16:04:11.599Z,1.30
2023-04-23T16:06:38.559Z,1.30
2023-04-23T16:09:08.161Z,1.30
2023-04-23T16:11:36.151Z,1.17
2023-04-23T16:14:03.347Z,1.40
2023-04-23T16:16:30.774Z,1.25
2023-04-23T16:18:57.823Z,1.10
2023-04-23T16:21:24.470Z,1.20
2023-04-23T16:23:51.268Z,1.40
2023-04-23T16:26:17.758Z,1.42
2023-04-23T16:28:45.785Z,1.55
2023-04-23T16:31:12.531Z,1.10
2023-04-23T16:33:40.373Z,1.15
2023-04-23T16:36:06.993Z,1.40
2023-04-23T16:38:33.561Z,1.20
2023-04-23T16:40:59.997Z,1.30
2023-04-23T16:43:27.440Z,1.45
2023-04-23T16:45:53.916Z,1.50
2023-04-23T16:48:21.215Z,1.30
2023-04-23T16:50:47.643Z,1.40
2023-04-23T16:53:14.192Z,1.20
2023-04-23T16:55:40.892Z,1.10
2023-04-23T16:58:07.503Z,1.50
2023-04-23T17:00:33.949Z,1.30
2023-04-23T17:03:00.564Z,1.02
2023-04-23T17:05:31.183Z,1.40
2023-04-23T17:07:57.988Z,1.30
2023-04-23T17:10:24.477Z,1.10
2023-04-23T17:12:54.101Z,1.40
2023-04-23T17:15:22.748Z,1.55
2023-04-23T17:17:49.403Z,1.40
2023-04-23T17:20:16.034Z,1.30
2023-04-23T17:22:42.537Z,1.55
2023-04-23T17:25:09.911Z,1.52
2023-04-23T17:27:36.375Z,1.58
2023-04-23T17:30:02.877Z,2.03
2023-04-23T17:32:29.421Z,1.58
2023-04-23T17:35:06.314Z,2.50
2023-04-23T17:37:36.345Z,2.33
2023-04-23T17:40:04.907Z,2.92
2023-04-23T17:42:31.484Z,2.90
2023-04-23T17:44:57.970Z,2.90
2023-04-23T17:47:25.288Z,2.70
2023-04-23T17:49:51.754Z,2.60
2023-04-23T17:52:18.204Z,2.28
2023-04-23T17:54:45.950Z,2.40
2023-04-23T17:57:12.388Z,2.22
2023-04-23T17:59:38.881Z,2.00
2023-04-23T18:02:05.396Z,1.92
2023-04-23T18:04:33.717Z,2.45
2023-04-23T18:07:00.204Z,1.92
2023-04-23T18:09:26.949Z,1.83
2023-04-23T18:11:57.108Z,1.80
2023-04-23T18:14:23.650Z,1.73
2023-04-23T18:16:50.721Z,2.05
2023-04-23T18:19:17.214Z,1.80
2023-04-23T18:21:45.844Z,2.10
2023-04-23T18:24:13.273Z,2.30
2023-04-23T18:26:39.748Z,2.22
2023-04-23T18:29:06.214Z,2.35
2023-04-23T18:31:32.789Z,2.65
2023-04-23T18:34:02.130Z,2.60
2023-04-23T18:36:33.056Z,2.90
2023-04-23T18:38:59.924Z,2.55
2023-04-23T18:41:29.701Z,2.70
2023-04-23T18:43:56.484Z,3.15
2023-04-23T18:46:23.397Z,2.72
2023-04-23T18:49:01.111Z,2.88
2023-04-23T18:51:37.244Z,2.83
2023-04-23T18:54:04.256Z,2.70
2023-04-23T18:56:30.820Z,3.08
2023-04-23T18:58:57.288Z,2.80
2023-04-23T19:01:24.512Z,2.92
2023-04-23T19:03:51.030Z,3.30
2023-04-23T19:06:17.651Z,2.70
2023-04-23T19:08:44.231Z,3.03
2023-04-23T19:11:11.092Z,2.78
2023-04-23T19:13:37.628Z,3.15
2023-04-23T19:16:04.391Z,2.97
2023-04-23T19:18:30.966Z,2.50
2023-04-23T19:20:58.343Z,2.78
2023-04-23T19:23:24.865Z,3.10
2023-04-23T19:25:51.811Z,3.00
2023-04-23T19:28:18.581Z,2.83
2023-04-23T19:30:45.048Z,2.60
2023-04-23T19:33:12.704Z,2.88
2023-04-23T19:35:40.396Z,2.88
2023-04-23T19:38:07.288Z,2.55
2023-04-23T19:40:33.980Z,2.78
2023-04-23T19:43:00.520Z,2.90
2023-04-23T19:45:26.987Z,2.70
2023-04-23T19:47:53.703Z,2.92
2023-04-23T19:50:20.618Z,3.25
2023-04-23T19:52:47.141Z,3.05
2023-04-23T19:55:13.778Z,3.72
2023-04-23T19:57:40.504Z,3.70
2023-04-23T20:00:07.553Z,3.67
2023-04-23T20:02:35.140Z,3.90
2023-04-23T20:05:03.115Z,3.83
2023-04-23T20:07:29.759Z,4.25
2023-04-23T20:09:56.215Z,3.63
2023-04-23T20:12:23.417Z,3.45
2023-04-23T20:14:50.158Z,3.92
2023-04-23T20:17:17.025Z,3.95
2023-04-23T20:19:44.096Z,3.60
2023-04-23T20:22:10.766Z,3.70
2023-04-23T20:24:40.244Z,4.25
2023-04-23T20:27:07.075Z,3.97
2023-04-23T20:29:33.609Z,3.70
2023-04-23T20:32:00.295Z,4.05
2023-04-23T20:34:27.041Z,4.13
2023-04-23T20:36:53.614Z,4.13
2023-04-23T20:39:24.088Z,4.10
2023-04-23T20:41:50.884Z,4.57
2023-04-23T20:44:18.133Z,4.43
2023-04-23T20:46:45.299Z,4.40
2023-04-23T20:49:12.257Z,4.00
2023-04-23T20:51:38.703Z,4.72
2023-04-23T20:54:05.183Z,4.30
2023-04-23T20:56:31.882Z,4.07
2023-04-23T20:58:58.726Z,4.25
2023-04-23T21:01:25.580Z,4.25
2023-04-23T21:03:53.515Z,4.40
2023-04-23T21:06:20.966Z,4.22
2023-04-23T21:08:48.856Z,4.40
2023-04-23T21:11:17.566Z,4.72
2023-04-23T21:13:45.067Z,4.65
2023-04-23T21:16:11.900Z,4.45
2023-04-23T21:18:39.303Z,5.00
2023-04-23T21:21:05.793Z,4.93
2023-04-23T21:23:32.356Z,5.10
2023-04-23T21:25:58.833Z,5.20
2023-04-23T21:28:25.436Z,4.70
2023-04-23T21:30:53.920Z,4.65
2023-04-23T21:33:22.061Z,4.15
2023-04-23T21:35:50.772Z,3.92
2023-04-23T21:38:17.992Z,4.43
2023-04-23T21:40:44.852Z,3.63
2023-04-23T21:43:11.593Z,3.10
2023-04-23T21:45:38.622Z,2.88
2023-04-23T21:48:05.900Z,3.25
2023-04-23T21:50:32.783Z,2.78
2023-04-23T21:53:00.370Z,2.72
2023-04-23T21:55:27.946Z,2.78
2023-04-23T21:58:00.398Z,2.25
2023-04-23T22:00:33.333Z,1.95
2023-04-23T22:03:00.195Z,2.05
2023-04-23T22:05:28.454Z,2.00
2023-04-23T22:07:55.713Z,2.00
2023-04-23T22:10:23.663Z,1.92
2023-04-23T22:12:50.774Z,2.30
2023-04-23T22:15:18.794Z,2.13
2023-04-23T22:17:50.648Z,2.80
2023-04-23T22:20:18.974Z,2.15
2023-04-23T22:22:46.030Z,2.00
2023-04-23T22:25:13.085Z,2.10
2023-04-23T22:27:40.427Z,2.00
2023-04-23T22:30:08.330Z,1.88
2023-04-23T22:32:35.990Z,2.10
2023-04-23T22:35:02.546Z,2.72
2023-04-23T22:37:29.204Z,2.10
2023-04-23T22:39:55.917Z,1.92
2023-04-23T22:42:22.361Z,2.20
2023-04-23T22:44:48.822Z,2.20
2023-04-23T22:47:15.308Z,2.40
2023-04-23T22:49:42.085Z,2.65
2023-04-23T22:52:11.598Z,2.60
2023-04-23T22:54:38.140Z,3.03
2023-04-23T22:57:04.637Z,2.53
2023-04-23T22:59:31.188Z,4.22
2023-04-23T23:01:57.696Z,5.32
2023-04-23T23:04:24.234Z,7.43
2023-04-23T23:06:50.721Z,2.70
2023-04-23T23:09:17.674Z,2.67
2023-04-23T23:11:44.206Z,2.60
2023-04-23T23:14:11.340Z,1.80
2023-04-23T23:16:37.967Z,1.58
2023-04-23T23:19:04.632Z,3.30
2023-04-23T23:21:32.326Z,13.75
2023-04-23T23:23:59.391Z,26.73
2023-04-23T23:26:25.867Z,5.90
2023-04-23T23:28:52.356Z,1.98
2023-04-23T23:31:18.830Z,3.25
2023-04-23T23:33:45.388Z,4.20
2023-04-23T23:36:11.956Z,3.65
2023-04-23T23:38:38.429Z,1.88
2023-04-23T23:41:04.906Z,1.80
2023-04-23T23:43:31.727Z,1.98
2023-04-23T23:45:58.196Z,1.50
2023-04-23T23:48:24.696Z,1.50
2023-04-23T23:50:51.125Z,1.30
2023-04-23T23:53:17.710Z,1.00
2023-04-23T23:55:44.175Z,1.02
2023-04-23T23:58:10.771Z,1.00
